Time;durP1;ratioP1;P1;durP2;ratioP2;P2;SDS_P1;SDS_P2;PMS_P1;PMS_P2;Temp;Humidity;BMP_temperature;BMP_pressure;BME280_temperature;BME280_humidity;BME280_pressure;Samples;Min_cycle;Max_cycle;Signal;HPM_P1;HPM_P2
2023/10/07 00:02:15;;;;;;;10.52;4.97;;;11.50;63.20;;;;;;5019602;28;20026;-63
2023/10/07 00:04:44;;;;;;;9.52;4.97;;;11.40;63.20;;;;;;5022338;28;20041;-61
2023/10/07 00:07:10;;;;;;;9.55;5.60;;;11.40;63.30;;;;;;5023408;28;20025;-61
2023/10/07 00:09:41;;;;;;;10.77;5.53;;;11.40;63.30;;;;;;5016266;28;20819;-61
2023/10/07 00:12:14;;;;;;;10.38;5.82;;;11.30;63.20;;;;;;5022848;28;20057;-61
2023/10/07 00:14:43;;;;;;;9.52;5.43;;;11.30;63.30;;;;;;5019476;28;20084;-61
2023/10/07 00:17:16;;;;;;;12.65;5.63;;;11.30;63.50;;;;;;5023484;28;20084;-61
2023/10/07 00:19:46;;;;;;;9.95;5.20;;;11.20;63.40;;;;;;5022664;28;20026;-61
2023/10/07 00:22:19;;;;;;;11.65;5.65;;;11.20;63.60;;;;;;5008572;28;20022;-61
2023/10/07 00:24:48;;;;;;;9.70;5.05;;;11.10;63.40;;;;;;5017425;28;20372;-61
2023/10/07 00:27:27;;;;;;;8.82;5.03;;;11.10;63.50;;;;;;5022871;28;20106;-62
2023/10/07 00:29:58;;;;;;;11.93;5.05;;;11.00;63.50;;;;;;5017806;28;20032;-62
2023/10/07 00:32:31;;;;;;;8.88;5.10;;;11.00;63.60;;;;;;5023905;28;20117;-62
2023/10/07 00:35:00;;;;;;;9.63;5.15;;;11.00;63.50;;;;;;5020839;28;20385;-63
2023/10/07 00:37:26;;;;;;;10.52;5.80;;;10.90;63.50;;;;;;5024682;28;20014;-62
2023/10/07 00:39:53;;;;;;;11.25;5.13;;;10.90;63.60;;;;;;5021614;28;20036;-61
2023/10/07 00:42:19;;;;;;;10.65;5.22;;;10.90;63.70;;;;;;5014984;28;20361;-62
2023/10/07 00:44:52;;;;;;;11.05;5.07;;;10.90;63.80;;;;;;5000043;28;20066;-61
2023/10/07 00:47:19;;;;;;;10.27;5.57;;;10.80;63.70;;;;;;5021569;28;20021;-60
2023/10/07 00:52:32;;;;;;;11.13;6.68;;;10.80;63.80;;;;;;5023525;28;20080;-61
2023/10/07 01:00:28;;;;;;;8.85;5.20;;;10.70;63.60;;;;;;5020846;28;20052;-61
2023/10/07 01:03:06;;;;;;;10.65;5.30;;;10.70;63.70;;;;;;5014908;28;20040;-61
2023/10/07 01:05:33;;;;;;;7.95;5.03;;;10.70;63.60;;;;;;5015703;28;20030;-61
2023/10/07 01:07:59;;;;;;;9.30;4.60;;;10.60;63.50;;;;;;5021532;28;20037;-61
2023/10/07 01:10:27;;;;;;;8.40;4.80;;;10.60;63.50;;;;;;5024554;28;20060;-60
2023/10/07 01:12:55;;;;;;;10.07;4.97;;;10.50;63.50;;;;;;5025662;28;20110;-60
2023/10/07 01:15:26;;;;;;;11.80;5.63;;;10.50;63.60;;;;;;5025914;28;20609;-61
2023/10/07 01:17:57;;;;;;;9.10;5.22;;;10.50;63.70;;;;;;5024096;28;20044;-61
2023/10/07 01:20:34;;;;;;;10.00;5.22;;;10.40;63.70;;;;;;5027781;28;20018;-62
2023/10/07 01:23:04;;;;;;;13.52;6.03;;;10.40;63.80;;;;;;5021700;28;20025;-61
2023/10/07 01:25:34;;;;;;;11.25;5.28;;;10.40;64.20;;;;;;5027869;28;20026;-62
2023/10/07 01:28:01;;;;;;;10.07;5.78;;;10.40;64.70;;;;;;5024636;28;20083;-60
2023/10/07 01:30:29;;;;;;;14.90;6.22;;;10.40;65.00;;;;;;5025441;28;20037;-61
2023/10/07 01:35:50;;;;;;;10.80;5.97;;;10.40;65.50;;;;;;5026368;28;20087;-60
2023/10/07 01:38:19;;;;;;;12.30;6.05;;;10.40;65.50;;;;;;5020529;28;20030;-60
2023/10/07 01:43:16;;;;;;;14.02;6.30;;;10.40;65.40;;;;;;5020429;28;20084;-61
2023/10/07 01:45:42;;;;;;;17.20;6.88;;;10.40;65.30;;;;;;5018737;28;20029;-61
2023/10/07 01:48:07;;;;;;;12.43;5.80;;;10.40;65.50;;;;;;5024409;28;20041;-62
2023/10/07 01:50:39;;;;;;;15.65;6.40;;;10.40;65.50;;;;;;5018860;28;20045;-61
2023/10/07 01:53:05;;;;;;;11.20;5.55;;;10.40;65.50;;;;;;5023233;28;20128;-62
2023/10/07 01:55:43;;;;;;;12.25;6.20;;;10.40;65.10;;;;;;5024810;28;20026;-61
2023/10/07 01:58:14;;;;;;;10.82;5.50;;;10.30;65.10;;;;;;5026265;28;20377;-60
2023/10/07 02:00:51;;;;;;;13.00;6.30;;;10.30;64.80;;;;;;5021531;28;20033;-60
2023/10/07 02:03:18;;;;;;;11.07;5.10;;;10.30;65.00;;;;;;5007884;28;20041;-61
2023/10/07 02:05:47;;;;;;;11.02;5.57;;;10.30;64.80;;;;;;5025867;28;20056;-61
2023/10/07 02:08:22;;;;;;;11.40;5.40;;;10.20;64.90;;;;;;5019546;28;20455;-61
2023/10/07 02:10:50;;;;;;;13.30;5.28;;;10.20;64.90;;;;;;5021701;28;20037;-61
2023/10/07 02:13:19;;;;;;;14.45;5.28;;;10.20;64.80;;;;;;5031790;28;20044;-61
2023/10/07 02:15:49;;;;;;;15.60;5.50;;;10.10;64.70;;;;;;5029117;28;20112;-61
2023/10/07 02:18:18;;;;;;;10.18;5.50;;;10.10;64.90;;;;;;5024458;28;20026;-61
2023/10/07 02:20:52;;;;;;;12.25;5.50;;;10.10;64.80;;;;;;5023038;28;20034;-62
2023/10/07 02:26:07;;;;;;;11.57;5.18;;;10.00;64.90;;;;;;5024929;28;20036;-62
2023/10/07 02:28:35;;;;;;;14.77;5.75;;;10.00;64.60;;;;;;5025986;28;20522;-61
2023/10/07 02:31:15;;;;;;;12.02;5.55;;;9.90;64.80;;;;;;5019642;28;20392;-61
2023/10/07 02:33:42;;;;;;;11.20;5.85;;;9.90;65.00;;;;;;5020342;28;20042;-61
2023/10/07 02:36:14;;;;;;;14.63;5.28;;;9.90;64.90;;;;;;5027230;28;20547;-62
2023/10/07 02:38:43;;;;;;;10.25;4.90;;;9.90;65.10;;;;;;5019806;28;20395;-62
2023/10/07 02:41:17;;;;;;;9.57;5.15;;;9.80;65.00;;;;;;5019622;28;20041;-62
2023/10/07 02:43:48;;;;;;;11.15;5.07;;;9.80;65.20;;;;;;5022837;28;20492;-61
2023/10/07 02:46:22;;;;;;;10.50;4.63;;;9.80;65.20;;;;;;5024703;28;20033;-61
2023/10/07 02:48:48;;;;;;;11.23;5.15;;;9.80;65.10;;;;;;5022777;28;20025;-61
2023/10/07 02:51:14;;;;;;;9.25;4.93;;;9.70;65.00;;;;;;5025945;28;20083;-61
2023/10/07 02:53:40;;;;;;;9.80;4.95;;;9.70;65.10;;;;;;5021143;28;20045;-62
2023/10/07 02:56:17;;;;;;;9.75;4.80;;;9.70;65.00;;;;;;5022603;28;20029;-61
2023/10/07 02:58:59;;;;;;;9.50;4.60;;;9.70;65.00;;;;;;5020828;28;20065;-60
2023/10/07 03:01:26;;;;;;;9.40;4.63;;;9.70;65.10;;;;;;5022478;28;20041;-61
2023/10/07 03:03:52;;;;;;;11.32;4.50;;;9.70;65.90;;;;;;5028069;28;20033;-62
2023/10/07 03:06:18;;;;;;;10.20;5.35;;;9.70;65.30;;;;;;5015165;28;20024;-61
2023/10/07 03:09:01;;;;;;;7.80;4.88;;;9.60;65.20;;;;;;5021022;28;20049;-62
2023/10/07 03:11:40;;;;;;;9.18;5.07;;;9.60;65.30;;;;;;5019134;28;20372;-62
2023/10/07 03:14:06;;;;;;;11.35;5.65;;;9.60;65.40;;;;;;5024063;28;20050;-62
2023/10/07 03:16:47;;;;;;;9.57;4.97;;;9.60;65.30;;;;;;5021704;28;20022;-61
2023/10/07 03:19:22;;;;;;;8.10;4.75;;;9.50;65.20;;;;;;5015897;28;20034;-61
2023/10/07 03:21:55;;;;;;;8.65;4.75;;;9.50;65.10;;;;;;5024045;28;20491;-61
2023/10/07 03:24:32;;;;;;;10.60;5.32;;;9.50;65.10;;;;;;5022731;28;20033;-61
2023/10/07 03:27:10;;;;;;;10.15;5.03;;;9.50;65.20;;;;;;5020566;28;20120;-61
2023/10/07 03:29:37;;;;;;;8.93;4.63;;;9.40;65.20;;;;;;5024230;28;20064;-62
2023/10/07 03:32:12;;;;;;;8.52;4.70;;;9.40;65.30;;;;;;5021642;28;20411;-62
2023/10/07 03:34:45;;;;;;;8.07;4.90;;;9.40;65.30;;;;;;5025441;28;20059;-60
2023/10/07 03:42:24;;;;;;;10.57;5.60;;;9.30;65.30;;;;;;4993105;28;20456;-61
2023/10/07 03:44:50;;;;;;;12.23;4.82;;;9.30;65.40;;;;;;5020745;28;20027;-61
2023/10/07 03:47:16;;;;;;;11.43;5.35;;;9.30;65.60;;;;;;4955521;28;20539;-62
2023/10/07 03:49:48;;;;;;;9.45;5.18;;;9.30;65.60;;;;;;5024188;28;20134;-60
2023/10/07 03:52:19;;;;;;;10.60;5.40;;;9.20;65.50;;;;;;5022433;28;20037;-60
2023/10/07 03:54:46;;;;;;;8.77;5.03;;;9.20;65.50;;;;;;5017591;28;20033;-62
2023/10/07 03:57:11;;;;;;;10.02;5.25;;;9.20;65.60;;;;;;5020111;28;20454;-61
2023/10/07 03:59:38;;;;;;;9.27;5.07;;;9.20;65.70;;;;;;5001728;28;20061;-61
2023/10/07 04:04:58;;;;;;;12.23;4.60;;;9.20;65.60;;;;;;5001217;28;20041;-60
2023/10/07 04:07:24;;;;;;;9.68;5.40;;;9.10;65.40;;;;;;5021191;28;20026;-60
2023/10/07 04:09:51;;;;;;;11.23;5.57;;;9.10;65.40;;;;;;5023436;28;20120;-61
2023/10/07 04:12:16;;;;;;;9.02;5.30;;;9.10;65.40;;;;;;5023593;28;20026;-60
2023/10/07 04:14:42;;;;;;;8.98;4.85;;;9.10;65.50;;;;;;5023866;28;20037;-61
2023/10/07 04:17:11;;;;;;;9.68;4.93;;;9.00;65.40;;;;;;5022959;28;20060;-61
2023/10/07 04:19:52;;;;;;;8.48;4.78;;;9.00;65.50;;;;;;5022114;28;20057;-61
2023/10/07 04:22:18;;;;;;;7.93;4.78;;;8.90;65.60;;;;;;5022987;28;20470;-61
2023/10/07 04:24:44;;;;;;;9.48;4.68;;;9.00;65.60;;;;;;5019516;28;20033;-62
2023/10/07 04:27:18;;;;;;;7.30;4.38;;;8.90;65.60;;;;;;5024276;28;20022;-60
2023/10/07 04:29:51;;;;;;;6.68;4.03;;;8.90;65.50;;;;;;5021025;28;20041;-62
2023/10/07 04:32:21;;;;;;;11.32;4.18;;;8.90;65.50;;;;;;5017272;28;20038;-61
2023/10/07 04:35:30;;;;;;;7.43;4.25;;;8.90;65.60;;;;;;5022983;28;20403;-62
2023/10/07 04:37:47;;;;;;;7.85;4.25;;;8.80;65.50;;;;;;5009426;28;20037;-61
2023/10/07 04:43:00;;;;;;;8.38;4.82;;;8.80;65.70;;;;;;5021451;28;20518;-61
2023/10/07 04:45:37;;;;;;;8.85;4.55;;;8.80;65.70;;;;;;5023526;28;20037;-61
2023/10/07 04:48:24;;;;;;;9.95;4.78;;;8.80;65.90;;;;;;5017387;28;20445;-61
2023/10/07 04:51:03;;;;;;;15.55;4.93;;;8.70;66.10;;;;;;5026320;28;20040;-62
2023/10/07 04:53:38;;;;;;;7.93;4.03;;;8.70;66.20;;;;;;5021711;28;20179;-61
2023/10/07 04:56:20;;;;;;;12.60;4.60;;;8.70;66.40;;;;;;5025358;28;20029;-61
2023/10/07 04:58:47;;;;;;;7.63;4.22;;;8.70;66.60;;;;;;5021140;28;20026;-61
2023/10/07 05:01:31;;;;;;;11.52;4.88;;;8.70;66.40;;;;;;5024679;28;20036;-61
2023/10/07 05:04:10;;;;;;;9.80;5.13;;;8.70;66.60;;;;;;5021142;28;20057;-61
2023/10/07 05:06:38;;;;;;;9.65;5.35;;;8.60;66.90;;;;;;5026788;28;20116;-61
2023/10/07 05:09:18;;;;;;;11.02;5.07;;;8.60;66.70;;;;;;5024380;28;20530;-61
2023/10/07 05:11:45;;;;;;;14.07;5.47;;;8.70;66.80;;;;;;5024955;28;20033;-62
2023/10/07 05:14:17;;;;;;;13.40;4.97;;;8.60;66.70;;;;;;5021185;28;20044;-61
2023/10/07 05:16:46;;;;;;;10.10;4.75;;;8.60;66.70;;;;;;5020091;28;20037;-61
2023/10/07 05:19:27;;;;;;;10.30;5.40;;;8.60;66.70;;;;;;5024108;28;20423;-61
2023/10/07 05:22:05;;;;;;;9.20;5.10;;;8.60;66.90;;;;;;5024751;28;20091;-61
2023/10/07 05:24:32;;;;;;;7.68;4.53;;;8.60;66.70;;;;;;5023808;28;20121;-61
2023/10/07 05:27:02;;;;;;;11.15;4.75;;;8.60;66.60;;;;;;5023011;28;20465;-61
2023/10/07 05:29:29;;;;;;;8.10;4.80;;;8.60;66.50;;;;;;5020616;28;20029;-61
2023/10/07 05:31:56;;;;;;;9.27;5.40;;;8.60;66.60;;;;;;5023985;28;20484;-61
2023/10/07 05:34:22;;;;;;;11.07;5.63;;;8.50;66.70;;;;;;5021359;28;20496;-61
2023/10/07 05:36:47;;;;;;;12.40;6.10;;;8.50;66.90;;;;;;5021235;28;20032;-60
2023/10/07 05:39:15;;;;;;;11.65;5.13;;;8.50;67.10;;;;;;5023541;28;20022;-62
2023/10/07 05:41:41;;;;;;;10.05;5.45;;;8.50;67.20;;;;;;5020796;28;20030;-62
2023/10/07 05:44:10;;;;;;;10.75;4.97;;;8.50;67.20;;;;;;5007443;28;20033;-60
2023/10/07 05:46:36;;;;;;;11.05;5.43;;;8.50;67.40;;;;;;4954639;28;20437;-61
2023/10/07 05:49:02;;;;;;;11.05;5.90;;;8.50;67.30;;;;;;5022376;28;20053;-61
2023/10/07 05:51:27;;;;;;;11.30;5.20;;;8.50;67.30;;;;;;5025135;28;20017;-60
2023/10/07 05:53:53;;;;;;;9.88;5.05;;;8.50;67.30;;;;;;5020539;28;20073;-60
2023/10/07 05:56:19;;;;;;;12.48;5.45;;;8.50;67.50;;;;;;5021786;28;20391;-61
2023/10/07 05:58:45;;;;;;;12.20;5.05;;;8.60;67.60;;;;;;5025615;28;20463;-61
2023/10/07 06:01:18;;;;;;;10.00;5.13;;;8.60;67.60;;;;;;5019228;28;20033;-63
2023/10/07 06:03:46;;;;;;;20.73;10.85;;;8.60;67.50;;;;;;5035468;28;20018;-62
2023/10/07 06:06:14;;;;;;;14.25;8.05;;;8.70;67.60;;;;;;5023883;28;20125;-62
2023/10/07 06:08:40;;;;;;;14.27;6.45;;;8.70;67.70;;;;;;5019098;28;20627;-62
2023/10/07 06:11:10;;;;;;;10.15;5.20;;;8.80;67.70;;;;;;5023659;28;20036;-62
2023/10/07 06:13:37;;;;;;;17.33;8.48;;;8.80;67.70;;;;;;5025883;28;20042;-61
2023/10/07 06:16:07;;;;;;;13.68;6.25;;;8.80;67.90;;;;;;5021529;28;20018;-62
2023/10/07 06:18:33;;;;;;;78.30;46.47;;;8.90;68.20;;;;;;5020158;28;20496;-62
2023/10/07 06:21:17;;;;;;;36.53;20.60;;;9.00;68.30;;;;;;5026430;28;20030;-62
2023/10/07 06:23:43;;;;;;;17.20;9.97;;;9.00;68.10;;;;;;5026017;28;20371;-62
2023/10/07 06:26:09;;;;;;;11.68;7.75;;;9.10;68.00;;;;;;5018034;28;20284;-62
2023/10/07 06:28:36;;;;;;;11.57;6.63;;;9.20;68.20;;;;;;5014521;28;20034;-62
2023/10/07 06:31:12;;;;;;;12.32;6.57;;;9.30;68.40;;;;;;5024222;28;20025;-62
2023/10/07 06:33:41;;;;;;;12.77;5.20;;;9.30;68.80;;;;;;5024676;28;20668;-62
2023/10/07 06:36:10;;;;;;;13.90;5.90;;;9.40;68.50;;;;;;5024975;28;20479;-62
2023/10/07 06:38:38;;;;;;;10.60;4.60;;;9.50;68.60;;;;;;5021644;28;20060;-62
2023/10/07 06:41:13;;;;;;;13.68;4.60;;;9.60;68.70;;;;;;5025254;28;20025;-62
2023/10/07 06:43:43;;;;;;;11.70;5.30;;;9.70;69.60;;;;;;5022513;28;20576;-62
2023/10/07 06:46:12;;;;;;;10.18;5.22;;;9.80;68.80;;;;;;5022257;28;20025;-61
2023/10/07 06:48:38;;;;;;;15.40;5.20;;;9.90;69.00;;;;;;4930509;28;20411;-61
2023/10/07 06:51:06;;;;;;;21.20;6.10;;;10.00;69.00;;;;;;5021884;28;20029;-61
2023/10/07 06:53:34;;;;;;;11.43;4.68;;;10.10;68.90;;;;;;5023604;28;20030;-62
2023/10/07 06:56:01;;;;;;;8.82;4.70;;;10.20;69.10;;;;;;5014883;28;20014;-61
2023/10/07 06:58:27;;;;;;;11.45;4.72;;;10.40;69.10;;;;;;5024434;28;21104;-63
2023/10/07 07:00:59;;;;;;;11.60;4.95;;;10.50;69.00;;;;;;5019973;28;20087;-62
2023/10/07 07:03:26;;;;;;;14.57;5.15;;;10.70;69.00;;;;;;5021103;28;20061;-61
2023/10/07 07:05:54;;;;;;;13.85;4.78;;;10.80;68.80;;;;;;5015738;28;20029;-61
2023/10/07 07:08:23;;;;;;;8.75;4.75;;;11.00;68.90;;;;;;5017825;28;20055;-61
2023/10/07 07:10:55;;;;;;;13.98;5.93;;;11.20;68.70;;;;;;5022274;28;20021;-61
2023/10/07 07:13:27;;;;;;;10.77;5.20;;;11.30;68.80;;;;;;5014071;28;20044;-62
2023/10/07 07:15:57;;;;;;;11.73;4.75;;;11.50;68.70;;;;;;5007656;28;20036;-62
2023/10/07 07:18:26;;;;;;;11.07;6.05;;;11.60;68.70;;;;;;5024255;28;20045;-62
2023/10/07 07:21:00;;;;;;;9.80;5.38;;;11.80;68.60;;;;;;5024664;28;20029;-62
2023/10/07 07:23:35;;;;;;;10.68;5.07;;;12.00;68.30;;;;;;5022371;28;20379;-62
2023/10/07 07:28:30;;;;;;;10.00;5.50;;;12.40;67.80;;;;;;5024242;28;20040;-61
2023/10/07 07:30:57;;;;;;;12.15;5.25;;;12.50;67.50;;;;;;5013273;28;20026;-61
2023/10/07 07:33:29;;;;;;;13.60;5.45;;;12.70;67.20;;;;;;5022501;28;20380;-62
2023/10/07 07:35:59;;;;;;;16.55;5.32;;;12.90;67.10;;;;;;5019837;28;20057;-61
2023/10/07 07:38:30;;;;;;;15.20;5.18;;;13.10;66.90;;;;;;5023787;28;20029;-62
2023/10/07 07:41:06;;;;;;;14.10;5.05;;;13.20;66.70;;;;;;5022907;28;20550;-61
2023/10/07 07:43:36;;;;;;;8.27;4.63;;;13.40;66.70;;;;;;5023144;28;20033;-63
2023/10/07 07:48:52;;;;;;;8.35;4.20;;;13.90;66.80;;;;;;5018086;28;20391;-62
2023/10/07 07:51:20;;;;;;;7.70;4.43;;;14.20;66.70;;;;;;5024257;28;20056;-62
2023/10/07 07:53:46;;;;;;;12.48;4.72;;;14.40;66.60;;;;;;5018581;28;20220;-62
2023/10/07 07:56:15;;;;;;;7.95;4.47;;;14.70;66.30;;;;;;5023145;28;20038;-62
2023/10/07 07:58:46;;;;;;;11.55;4.70;;;14.90;66.00;;;;;;5019997;28;20026;-62
2023/10/07 08:01:18;;;;;;;10.82;5.00;;;15.20;65.40;;;;;;5022017;28;20040;-62
2023/10/07 08:03:44;;;;;;;7.13;4.75;;;15.50;64.70;;;;;;5024165;28;20118;-62
2023/10/07 08:06:19;;;;;;;8.52;4.47;;;15.70;63.80;;;;;;5025363;28;20573;-62
2023/10/07 08:08:55;;;;;;;16.17;5.07;;;15.90;63.30;;;;;;5003513;28;20073;-62
2023/10/07 08:11:21;;;;;;;9.63;4.78;;;16.10;62.90;;;;;;5024651;28;20060;-62
2023/10/07 08:13:53;;;;;;;14.63;4.88;;;16.30;62.20;;;;;;5016410;28;20048;-63
2023/10/07 08:16:19;;;;;;;8.07;4.50;;;16.40;61.70;;;;;;5022468;28;20022;-62
2023/10/07 08:18:53;;;;;;;9.65;4.72;;;16.50;61.70;;;;;;5024369;28;20476;-63
2023/10/07 08:21:28;;;;;;;8.32;4.60;;;16.60;60.80;;;;;;5023823;28;20477;-63
2023/10/07 08:23:54;;;;;;;9.65;4.15;;;16.70;60.50;;;;;;5022977;28;20033;-62
2023/10/07 08:26:23;;;;;;;9.77;4.57;;;16.80;60.40;;;;;;5020979;28;21035;-63
2023/10/07 08:31:37;;;;;;;9.30;4.20;;;17.00;59.70;;;;;;5020719;28;20740;-63
2023/10/07 08:36:36;;;;;;;16.67;4.60;;;17.20;58.00;;;;;;5028957;28;20084;-63
2023/10/07 08:39:05;;;;;;;9.90;3.95;;;17.30;57.50;;;;;;5030162;28;20026;-62
2023/10/07 08:41:31;;;;;;;7.78;3.88;;;17.40;56.80;;;;;;5018751;28;20033;-63
2023/10/07 08:44:17;;;;;;;7.40;3.58;;;17.50;56.30;;;;;;5023298;28;20058;-63
2023/10/07 08:46:54;;;;;;;9.05;3.83;;;17.60;55.80;;;;;;4924784;28;20064;-63
2023/10/07 08:49:27;;;;;;;7.38;3.67;;;17.70;56.20;;;;;;5021000;28;20049;-63
2023/10/07 08:51:54;;;;;;;8.05;4.18;;;17.80;55.60;;;;;;5022962;28;20036;-63
2023/10/07 08:54:31;;;;;;;8.52;3.72;;;18.00;55.40;;;;;;5019695;28;20147;-62
2023/10/07 08:56:59;;;;;;;11.63;3.72;;;18.10;55.10;;;;;;5028466;28;20025;-62
2023/10/07 08:59:30;;;;;;;9.95;3.80;;;18.20;55.20;;;;;;5027208;28;20032;-63
2023/10/07 09:02:00;;;;;;;11.80;3.70;;;18.30;54.40;;;;;;5022248;28;20377;-63
2023/10/07 09:04:31;;;;;;;13.60;3.97;;;18.40;54.00;;;;;;5023095;28;20365;-63
2023/10/07 09:07:08;;;;;;;7.40;4.10;;;18.50;53.30;;;;;;5026710;28;20033;-63
2023/10/07 09:09:38;;;;;;;10.73;4.40;;;18.60;53.30;;;;;;5025850;28;20053;-63
2023/10/07 09:12:11;;;;;;;10.05;4.10;;;18.70;53.50;;;;;;5024858;28;20030;-63
2023/10/07 09:14:47;;;;;;;8.48;3.90;;;18.80;53.40;;;;;;5024322;28;20480;-64
2023/10/07 09:17:13;;;;;;;9.27;4.40;;;18.90;52.70;;;;;;5029603;28;20376;-63
2023/10/07 09:19:43;;;;;;;9.18;4.45;;;19.00;52.00;;;;;;5020297;28;20029;-62
2023/10/07 09:22:14;;;;;;;9.50;4.38;;;19.00;51.60;;;;;;5024891;28;20131;-63
2023/10/07 09:24:44;;;;;;;7.15;3.58;;;19.10;50.80;;;;;;5027034;28;20104;-63
2023/10/07 09:27:13;;;;;;;8.48;3.85;;;19.10;50.90;;;;;;5028148;28;20022;-63
2023/10/07 09:29:44;;;;;;;8.25;3.78;;;19.10;50.50;;;;;;5023722;28;20026;-63
2023/10/07 09:32:21;;;;;;;7.00;3.65;;;19.10;50.30;;;;;;5023697;28;20032;-63
2023/10/07 09:34:47;;;;;;;8.18;4.10;;;19.20;49.80;;;;;;5024215;28;20038;-63
2023/10/07 09:37:21;;;;;;;8.93;4.20;;;19.20;49.80;;;;;;5025397;28;20828;-63
2023/10/07 09:42:37;;;;;;;8.15;3.88;;;19.30;49.50;;;;;;5024203;28;20052;-63
2023/10/07 09:45:16;;;;;;;7.90;3.47;;;19.30;49.80;;;;;;5025038;28;20034;-63
2023/10/07 09:47:46;;;;;;;7.22;3.10;;;19.30;49.40;;;;;;5018771;28;20030;-63
2023/10/07 09:50:33;;;;;;;6.25;3.80;;;19.40;49.30;;;;;;5023216;28;20098;-64
2023/10/07 09:53:18;;;;;;;9.85;4.10;;;19.40;48.90;;;;;;5019544;28;20037;-62
2023/10/07 09:56:20;;;;;;;9.00;3.80;;;19.40;47.50;;;;;;5028213;28;20022;-63
2023/10/07 09:59:13;;;;;;;7.80;4.05;;;19.50;48.20;;;;;;4990938;28;20046;-63
2023/10/07 10:01:58;;;;;;;6.53;3.53;;;19.50;48.20;;;;;;5001634;28;20037;-63
2023/10/07 10:04:43;;;;;;;6.65;3.63;;;19.60;48.40;;;;;;5004399;28;20048;-64
2023/10/07 10:07:26;;;;;;;10.30;3.80;;;19.60;48.40;;;;;;5003568;28;20026;-62
2023/10/07 10:18:02;;;;;;;7.20;3.40;;;19.80;47.40;;;;;;5001331;28;20041;-63
2023/10/07 10:20:42;;;;;;;5.25;3.20;;;19.80;47.80;;;;;;5004337;28;20121;-63
2023/10/07 10:23:19;;;;;;;7.55;3.28;;;20.00;46.60;;;;;;5000308;28;21023;-66
2023/10/07 10:25:51;;;;;;;7.03;3.30;;;20.00;46.50;;;;;;4999586;28;20046;-64
2023/10/07 10:28:31;;;;;;;5.30;3.17;;;20.10;46.10;;;;;;5001305;28;20046;-63
2023/10/07 10:30:57;;;;;;;6.03;3.38;;;20.20;45.20;;;;;;5000610;28;20112;-63
2023/10/07 10:33:25;;;;;;;7.80;4.20;;;20.20;44.90;;;;;;4999118;28;20180;-63
2023/10/07 10:35:52;;;;;;;7.13;3.30;;;20.30;44.20;;;;;;5008581;28;20053;-63
2023/10/07 10:38:20;;;;;;;6.95;2.88;;;20.30;44.90;;;;;;5023974;28;20445;-62
2023/10/07 10:40:47;;;;;;;8.60;3.40;;;20.30;44.90;;;;;;5024825;28;20168;-63
2023/10/07 10:43:25;;;;;;;4.22;2.75;;;20.30;45.10;;;;;;5021030;28;20045;-63
2023/10/07 10:46:05;;;;;;;7.82;3.60;;;20.40;44.40;;;;;;5014942;28;20032;-64
2023/10/07 10:48:31;;;;;;;5.22;3.03;;;20.50;44.60;;;;;;5020352;28;20507;-64
2023/10/07 10:50:57;;;;;;;6.93;3.33;;;20.50;45.20;;;;;;5001953;28;20106;-64
2023/10/07 10:53:23;;;;;;;5.10;2.90;;;20.60;45.10;;;;;;5014940;28;20046;-63
2023/10/07 10:55:50;;;;;;;4.88;2.60;;;20.70;44.90;;;;;;5021703;28;20028;-64
2023/10/07 10:58:17;;;;;;;5.78;3.13;;;20.70;44.30;;;;;;5011152;28;20034;-64
2023/10/07 11:00:51;;;;;;;8.13;2.78;;;20.70;44.10;;;;;;5012816;28;20029;-64
2023/10/07 11:03:23;;;;;;;6.18;3.35;;;20.80;43.40;;;;;;5018936;28;20025;-64
2023/10/07 11:05:53;;;;;;;8.10;3.28;;;20.80;43.30;;;;;;5010720;28;20061;-63
2023/10/07 11:08:23;;;;;;;10.30;3.03;;;20.70;43.30;;;;;;5020971;28;20433;-64
2023/10/07 11:10:58;;;;;;;7.07;3.67;;;20.70;42.90;;;;;;5019016;28;20060;-62
2023/10/07 11:13:25;;;;;;;6.97;2.95;;;20.70;42.20;;;;;;5013301;28;20042;-63
2023/10/07 11:16:04;;;;;;;5.82;3.20;;;20.70;43.00;;;;;;5009423;28;21751;-63
2023/10/07 11:18:31;;;;;;;5.13;3.05;;;20.60;40.90;;;;;;5012521;28;20518;-64
2023/10/07 11:20:56;;;;;;;5.38;2.90;;;20.60;42.30;;;;;;5023953;28;20025;-63
2023/10/07 11:23:22;;;;;;;4.78;2.67;;;20.60;42.50;;;;;;5018709;28;20426;-64
2023/10/07 11:25:50;;;;;;;5.22;2.75;;;20.60;42.70;;;;;;5023567;28;20080;-63
2023/10/07 11:28:20;;;;;;;5.13;3.05;;;20.70;43.00;;;;;;5004697;28;20029;-63
2023/10/07 11:30:47;;;;;;;5.10;2.58;;;20.80;42.60;;;;;;5026191;28;20151;-62
2023/10/07 11:33:16;;;;;;;8.05;3.33;;;20.80;42.40;;;;;;5025813;28;20112;-62
2023/10/07 11:35:42;;;;;;;5.13;2.80;;;20.90;42.60;;;;;;5017965;28;20472;-62
2023/10/07 11:38:09;;;;;;;4.45;2.67;;;21.00;42.00;;;;;;5018831;28;20054;-62
2023/10/07 11:40:35;;;;;;;8.07;3.22;;;21.10;41.90;;;;;;5020582;28;20057;-63
2023/10/07 11:43:09;;;;;;;6.97;2.60;;;21.20;41.40;;;;;;5022413;28;20034;-63
2023/10/07 11:45:39;;;;;;;4.72;2.92;;;21.30;41.30;;;;;;5021111;28;20040;-62
2023/10/07 11:48:08;;;;;;;4.68;2.80;;;21.40;41.40;;;;;;5024272;28;20018;-63
2023/10/07 11:50:38;;;;;;;6.78;2.70;;;21.50;41.00;;;;;;5016116;28;20075;-63
2023/10/07 11:53:05;;;;;;;10.20;3.08;;;21.60;41.50;;;;;;5021582;28;20088;-64
2023/10/07 11:55:31;;;;;;;9.60;2.78;;;21.70;41.40;;;;;;5018168;28;20026;-63
2023/10/07 11:58:07;;;;;;;4.78;3.10;;;21.80;40.90;;;;;;5023226;28;20506;-64
2023/10/07 12:00:37;;;;;;;5.93;3.20;;;21.90;40.20;;;;;;5023227;28;20041;-63
2023/10/07 12:03:07;;;;;;;7.35;3.05;;;22.00;40.40;;;;;;5022939;28;20024;-64
2023/10/07 12:05:37;;;;;;;4.15;2.75;;;22.10;40.30;;;;;;5005387;28;20065;-64
2023/10/07 12:08:03;;;;;;;5.97;3.03;;;22.20;40.70;;;;;;5021093;28;20025;-64
2023/10/07 12:10:30;;;;;;;5.93;3.08;;;22.40;39.70;;;;;;5003070;28;20103;-64
2023/10/07 12:12:58;;;;;;;6.10;3.53;;;22.50;38.70;;;;;;5002677;28;20030;-63
2023/10/07 12:15:25;;;;;;;5.07;2.80;;;22.50;38.40;;;;;;5025144;28;20033;-63
2023/10/07 12:17:51;;;;;;;11.23;2.75;;;22.60;38.20;;;;;;5023081;28;20037;-63
2023/10/07 12:20:19;;;;;;;10.20;3.40;;;22.60;38.30;;;;;;5021732;28;20105;-63
2023/10/07 12:22:46;;;;;;;7.18;2.97;;;22.60;36.20;;;;;;5007668;28;20034;-64
2023/10/07 12:25:16;;;;;;;8.50;3.30;;;22.60;37.00;;;;;;5018231;28;20107;-63
2023/10/07 12:27:47;;;;;;;5.72;2.88;;;22.50;36.00;;;;;;5025479;28;20108;-64
2023/10/07 12:30:14;;;;;;;4.60;2.90;;;22.50;35.50;;;;;;5025869;28;20397;-64
2023/10/07 12:32:41;;;;;;;3.30;2.50;;;22.40;36.50;;;;;;5022218;28;20029;-64
2023/10/07 12:35:10;;;;;;;8.10;2.85;;;22.40;36.90;;;;;;5020974;28;20033;-65
2023/10/07 12:37:39;;;;;;;7.65;2.50;;;22.30;37.80;;;;;;5021529;28;20042;-63
2023/10/07 12:40:12;;;;;;;4.57;2.67;;;22.30;38.00;;;;;;5023479;28;20021;-63
2023/10/07 12:42:39;;;;;;;4.32;2.70;;;22.30;38.50;;;;;;5022973;28;20030;-63
2023/10/07 12:45:06;;;;;;;7.45;3.22;;;22.30;38.50;;;;;;5017649;28;20391;-63
2023/10/07 12:47:33;;;;;;;6.07;2.65;;;22.20;38.90;;;;;;4945033;28;20131;-63
2023/10/07 12:49:58;;;;;;;5.43;2.75;;;22.30;39.40;;;;;;5026372;28;20036;-63
2023/10/07 12:52:26;;;;;;;5.60;2.95;;;22.20;39.10;;;;;;5017886;28;20350;-63
2023/10/07 12:54:52;;;;;;;5.30;2.72;;;22.20;39.10;;;;;;5016120;28;20033;-64
2023/10/07 12:57:18;;;;;;;5.25;2.60;;;22.20;39.30;;;;;;5020599;28;20460;-64
2023/10/07 12:59:47;;;;;;;4.05;2.35;;;22.20;39.00;;;;;;5016827;28;20100;-64
2023/10/07 13:02:17;;;;;;;5.10;2.78;;;22.30;39.30;;;;;;5020872;28;20034;-63
2023/10/07 13:04:47;;;;;;;6.70;2.75;;;22.30;38.90;;;;;;5019559;28;20030;-63
2023/10/07 13:07:14;;;;;;;12.98;3.45;;;22.30;38.30;;;;;;5008099;28;21435;-63
2023/10/07 13:09:42;;;;;;;4.72;2.72;;;22.30;39.00;;;;;;5008729;28;20056;-62
2023/10/07 13:12:13;;;;;;;5.55;2.67;;;22.30;38.50;;;;;;5004435;28;20041;-63
2023/10/07 13:14:41;;;;;;;4.93;3.25;;;22.30;38.60;;;;;;4981671;28;20037;-64
2023/10/07 13:17:13;;;;;;;7.30;3.20;;;22.30;38.60;;;;;;5000111;28;20545;-62
2023/10/07 13:19:40;;;;;;;4.95;2.78;;;22.20;38.50;;;;;;5003104;28;20045;-64
2023/10/07 13:22:06;;;;;;;4.13;2.95;;;22.20;38.80;;;;;;4997509;28;20037;-63
2023/10/07 13:24:32;;;;;;;8.73;2.92;;;22.20;38.90;;;;;;5001447;28;20030;-63
2023/10/07 13:26:58;;;;;;;4.40;2.63;;;22.20;38.90;;;;;;4998406;28;20030;-64
2023/10/07 13:29:24;;;;;;;7.32;3.00;;;22.20;38.90;;;;;;5003327;28;20076;-64
2023/10/07 13:31:52;;;;;;;6.00;2.88;;;22.20;39.00;;;;;;5002261;28;20033;-64
2023/10/07 13:34:18;;;;;;;6.18;3.60;;;22.10;39.30;;;;;;5001182;28;20172;-64
2023/10/07 13:36:44;;;;;;;7.15;3.80;;;22.20;39.40;;;;;;4996764;28;20504;-64
2023/10/07 13:39:15;;;;;;;7.82;3.30;;;22.20;39.30;;;;;;5000061;28;20030;-64
2023/10/07 13:41:45;;;;;;;5.30;3.13;;;22.10;39.40;;;;;;4994486;28;20033;-65
2023/10/07 13:44:18;;;;;;;5.90;3.58;;;22.10;39.60;;;;;;5000292;28;20180;-64
2023/10/07 13:46:45;;;;;;;5.65;3.35;;;22.10;39.30;;;;;;4995434;28;20096;-64
2023/10/07 13:49:11;;;;;;;5.93;3.00;;;22.10;39.80;;;;;;4956151;28;20053;-64
2023/10/07 13:51:45;;;;;;;5.95;3.50;;;22.10;40.10;;;;;;5002557;28;20033;-64